createdAt,value
2023-07-10T00:01:15.906Z,20.73
2023-07-10T00:04:14.782Z,16.92
2023-07-10T00:06:59.901Z,25.50
2023-07-10T00:09:51.750Z,21.73
2023-07-10T00:12:36.926Z,20.67
2023-07-10T00:15:29.764Z,21.08
2023-07-10T00:18:16.576Z,19.02
2023-07-10T00:21:07.752Z,20.90
2023-07-10T00:23:52.435Z,21.20
2023-07-10T00:26:45.754Z,15.77
2023-07-10T00:29:33.096Z,16.00
2023-07-10T00:32:24.785Z,19.10
2023-07-10T00:35:09.979Z,18.65
2023-07-10T00:38:09.763Z,17.40
2023-07-10T00:40:55.431Z,18.70
2023-07-10T00:43:53.768Z,17.10
2023-07-10T00:47:02.818Z,19.02
2023-07-10T00:50:00.770Z,24.67
2023-07-10T00:52:54.781Z,19.30
2023-07-10T00:55:46.756Z,25.40
2023-07-10T00:58:46.794Z,24.98
2023-07-10T01:01:31.833Z,23.23
2023-07-10T01:04:29.768Z,23.05
2023-07-10T01:07:24.778Z,21.90
2023-07-10T01:10:17.782Z,24.00
2023-07-10T01:13:02.926Z,26.23
2023-07-10T01:15:54.786Z,24.30
2023-07-10T01:18:41.998Z,25.13
2023-07-10T01:21:37.807Z,29.60
2023-07-10T01:24:22.913Z,21.73
2023-07-10T01:27:19.794Z,24.75
2023-07-10T01:30:15.151Z,26.25
2023-07-10T01:33:07.762Z,22.10
2023-07-10T01:35:56.146Z,23.30
2023-07-10T01:39:01.811Z,23.30
2023-07-10T01:41:53.792Z,20.15
2023-07-10T01:44:41.441Z,22.73
2023-07-10T01:47:32.872Z,21.60
2023-07-10T01:50:18.239Z,21.87
2023-07-10T01:53:10.802Z,18.70
2023-07-10T01:55:55.916Z,20.67
2023-07-10T01:58:47.776Z,19.55
2023-07-10T02:01:42.452Z,23.98
2023-07-10T02:04:34.927Z,17.87
2023-07-10T02:07:26.813Z,24.40
2023-07-10T02:10:20.824Z,23.40
2023-07-10T02:13:07.150Z,21.13
2023-07-10T02:15:58.796Z,25.75
2023-07-10T02:18:50.794Z,17.20
2023-07-10T02:21:35.571Z,21.90
2023-07-10T02:24:26.788Z,20.73
2023-07-10T02:27:11.644Z,24.63
2023-07-10T02:30:03.022Z,20.67
2023-07-10T02:32:47.964Z,18.57
2023-07-10T02:35:39.819Z,19.10
2023-07-10T02:38:25.027Z,19.77
2023-07-10T02:41:16.804Z,17.98
2023-07-10T02:44:01.622Z,22.05
2023-07-10T02:46:52.808Z,19.63
2023-07-10T02:49:37.893Z,18.75
2023-07-10T02:52:29.825Z,20.52
2023-07-10T02:55:14.873Z,20.48
2023-07-10T02:58:08.074Z,17.98
2023-07-10T03:00:58.782Z,19.17
2023-07-10T03:03:57.810Z,19.30
2023-07-10T03:06:42.896Z,19.27
2023-07-10T03:09:33.808Z,22.45
2023-07-10T03:12:18.824Z,19.65
2023-07-10T03:15:11.826Z,23.13
2023-07-10T03:17:57.044Z,22.15
2023-07-10T03:20:47.827Z,20.45
2023-07-10T03:23:32.762Z,24.77
2023-07-10T03:26:23.883Z,21.00
2023-07-10T03:29:18.828Z,21.17
2023-07-10T03:32:04.381Z,18.88
2023-07-10T03:34:56.846Z,19.50
2023-07-10T03:37:42.009Z,18.27
2023-07-10T03:40:32.820Z,20.20
2023-07-10T03:43:17.692Z,18.90
2023-07-10T03:46:08.835Z,21.83
2023-07-10T03:48:53.744Z,21.15
2023-07-10T03:51:44.849Z,21.10
2023-07-10T03:54:33.446Z,19.75
2023-07-10T03:57:24.848Z,19.20
2023-07-10T04:00:16.851Z,20.48
2023-07-10T04:03:14.959Z,18.13
2023-07-10T04:06:15.897Z,24.70
2023-07-10T04:09:07.851Z,19.67
2023-07-10T04:11:52.739Z,16.20
2023-07-10T04:14:45.844Z,17.13
2023-07-10T04:17:31.617Z,17.80
2023-07-10T04:20:24.837Z,16.45
2023-07-10T04:23:16.154Z,18.20
2023-07-10T04:26:08.076Z,19.30
2023-07-10T04:28:56.289Z,24.02
2023-07-10T04:31:47.906Z,18.13
2023-07-10T04:34:35.808Z,19.15
2023-07-10T04:37:26.863Z,18.98
2023-07-10T04:40:12.593Z,16.90
2023-07-10T04:43:04.048Z,21.00
2023-07-10T04:45:50.305Z,19.83
2023-07-10T04:48:41.952Z,22.88
2023-07-10T04:51:27.233Z,20.88
2023-07-10T04:54:18.890Z,23.37
2023-07-10T04:57:13.059Z,26.67
2023-07-10T04:59:58.436Z,24.02
2023-07-10T05:02:50.214Z,22.42
2023-07-10T05:05:35.365Z,20.80
2023-07-10T05:08:29.879Z,15.33
2023-07-10T05:11:15.829Z,15.80
2023-07-10T05:14:07.883Z,15.20
2023-07-10T05:16:53.767Z,14.63
2023-07-10T05:19:47.113Z,29.95
2023-07-10T05:22:32.112Z,14.23
2023-07-10T05:25:23.871Z,11.45
2023-07-10T05:28:15.891Z,12.63
2023-07-10T05:31:08.871Z,15.45
2023-07-10T05:33:59.879Z,12.63
2023-07-10T05:36:44.704Z,12.37
2023-07-10T05:39:37.107Z,13.40
2023-07-10T05:42:22.375Z,10.07
2023-07-10T05:45:14.921Z,12.38
2023-07-10T05:48:00.050Z,14.95
2023-07-10T05:50:54.883Z,16.57
2023-07-10T05:53:45.880Z,13.77
2023-07-10T05:56:32.286Z,14.10
2023-07-10T05:59:23.865Z,14.70
2023-07-10T06:02:17.992Z,13.45
2023-07-10T06:05:16.898Z,10.93
2023-07-10T06:08:01.887Z,13.75
2023-07-10T06:10:53.921Z,15.60
2023-07-10T06:13:38.824Z,21.25
2023-07-10T06:16:30.896Z,11.57
2023-07-10T06:19:17.941Z,14.70
2023-07-10T06:22:18.915Z,16.02
2023-07-10T06:25:04.315Z,15.25
2023-07-10T06:27:55.898Z,17.38
2023-07-10T06:30:43.685Z,15.88
2023-07-10T06:33:37.898Z,15.23
2023-07-10T06:36:28.914Z,21.33
2023-07-10T06:39:13.991Z,19.98
2023-07-10T06:42:04.913Z,22.45
2023-07-10T06:44:49.987Z,15.52
2023-07-10T06:47:47.955Z,15.97
2023-07-10T06:50:32.850Z,14.23
2023-07-10T06:53:27.386Z,18.67
2023-07-10T06:56:19.900Z,11.05
2023-07-10T06:59:04.751Z,14.27
2023-07-10T07:01:56.024Z,16.07
2023-07-10T07:04:48.930Z,11.68
2023-07-10T07:07:41.918Z,12.18
2023-07-10T07:10:26.961Z,15.90
2023-07-10T07:13:21.424Z,13.70
2023-07-10T07:16:12.927Z,17.50
2023-07-10T07:19:06.776Z,16.58
2023-07-10T07:22:05.908Z,11.57
2023-07-10T07:24:57.925Z,10.30
2023-07-10T07:27:43.169Z,14.88
2023-07-10T07:30:34.934Z,13.90
2023-07-10T07:33:21.448Z,10.75
2023-07-10T07:36:12.943Z,10.25
2023-07-10T07:38:57.662Z,10.35
2023-07-10T07:41:48.921Z,9.57
2023-07-10T07:44:33.868Z,11.27
2023-07-10T07:47:25.960Z,12.35
2023-07-10T07:50:11.053Z,9.93
2023-07-10T07:53:02.951Z,10.98
2023-07-10T07:55:48.073Z,9.02
2023-07-10T07:58:39.932Z,9.47
2023-07-10T08:01:25.173Z,11.50
2023-07-10T08:04:25.992Z,6.45
2023-07-10T08:07:18.043Z,7.93
2023-07-10T08:10:11.926Z,11.60
2023-07-10T08:13:03.937Z,6.67
2023-07-10T08:15:55.935Z,7.45
2023-07-10T08:18:42.076Z,7.18
2023-07-10T08:21:33.931Z,7.32
2023-07-10T08:24:18.817Z,8.48
2023-07-10T08:27:10.956Z,5.60
2023-07-10T08:29:56.175Z,7.07
2023-07-10T08:32:48.018Z,4.78
2023-07-10T08:35:33.219Z,6.13
2023-07-10T08:38:24.971Z,5.50
2023-07-10T08:41:22.007Z,5.78
2023-07-10T08:44:16.994Z,6.33
2023-07-10T08:47:11.745Z,8.63
2023-07-10T08:50:38.964Z,7.85
2023-07-10T08:53:34.950Z,8.50
2023-07-10T08:56:34.168Z,7.22
2023-07-10T08:59:34.985Z,8.68
2023-07-10T09:02:55.991Z,4.67
2023-07-10T09:05:53.972Z,6.87
2023-07-10T09:08:39.535Z,7.40
2023-07-10T09:11:32.971Z,6.78
2023-07-10T09:14:33.346Z,6.25
2023-07-10T09:17:44.000Z,5.93
2023-07-10T09:20:29.049Z,4.97
2023-07-10T09:23:32.095Z,4.10
2023-07-10T09:26:26.982Z,4.47
2023-07-10T09:29:11.772Z,4.60
2023-07-10T09:32:12.123Z,4.88
2023-07-10T09:35:00.571Z,4.97
2023-07-10T09:37:58.054Z,6.43
2023-07-10T09:40:48.603Z,4.63
2023-07-10T09:43:40.983Z,8.18
2023-07-10T09:46:38.100Z,8.40
2023-07-10T09:49:24.594Z,3.37
2023-07-10T09:52:28.999Z,4.93
2023-07-10T09:55:16.705Z,8.35
2023-07-10T09:58:10.004Z,3.35
2023-07-10T10:00:55.001Z,5.20
2023-07-10T10:03:51.003Z,5.47
2023-07-10T10:06:43.842Z,4.72
2023-07-10T10:09:37.038Z,5.10
2023-07-10T10:12:33.987Z,7.13
2023-07-10T10:15:37.355Z,6.28
2023-07-10T10:18:43.212Z,4.80
2023-07-10T10:21:32.943Z,4.38
2023-07-10T10:24:25.002Z,3.45
2023-07-10T10:27:41.234Z,3.17
2023-07-10T10:30:41.998Z,4.80
2023-07-10T10:34:00.028Z,4.33
2023-07-10T10:37:04.338Z,2.85
2023-07-10T10:40:04.999Z,4.50
2023-07-10T10:43:05.184Z,7.82
2023-07-10T10:46:08.283Z,6.10
2023-07-10T10:49:29.026Z,3.33
2023-07-10T10:52:24.369Z,4.70
2023-07-10T10:55:41.019Z,3.45
2023-07-10T10:58:43.129Z,3.85
2023-07-10T11:01:43.157Z,4.05
2023-07-10T11:04:41.077Z,3.97
2023-07-10T11:07:40.049Z,4.15
2023-07-10T11:10:37.192Z,6.22
2023-07-10T11:13:42.083Z,5.28
2023-07-10T11:16:37.078Z,5.50
2023-07-10T11:19:28.371Z,4.90
2023-07-10T11:22:35.058Z,3.65
2023-07-10T11:25:39.481Z,3.80
2023-07-10T11:28:37.052Z,3.65
2023-07-10T11:31:38.125Z,4.13
2023-07-10T11:34:23.097Z,3.07
2023-07-10T11:37:41.053Z,5.80
2023-07-10T11:40:29.241Z,4.30
2023-07-10T11:43:33.045Z,7.72
2023-07-10T11:46:24.068Z,4.57
2023-07-10T11:49:25.043Z,4.13
2023-07-10T11:52:23.064Z,4.05
2023-07-10T11:55:12.744Z,4.13
2023-07-10T11:58:34.067Z,7.22
2023-07-10T12:01:28.243Z,3.88
2023-07-10T12:04:26.496Z,3.10
2023-07-10T12:07:25.082Z,5.30
2023-07-10T12:10:12.416Z,4.03
2023-07-10T12:13:05.071Z,3.95
2023-07-10T12:15:53.498Z,3.10
2023-07-10T12:18:48.268Z,2.90
2023-07-10T12:21:40.079Z,3.15
2023-07-10T12:24:31.070Z,3.97
2023-07-10T12:30:22.068Z,4.30
2023-07-10T12:33:43.080Z,5.57
2023-07-10T12:36:34.735Z,3.92
2023-07-10T12:39:27.081Z,3.85
2023-07-10T12:42:35.426Z,3.17
2023-07-10T12:45:36.070Z,4.28
2023-07-10T12:48:28.088Z,3.30
2023-07-10T12:51:36.090Z,7.35
2023-07-10T12:54:36.074Z,3.83
2023-07-10T12:57:30.576Z,2.55
2023-07-10T13:00:22.081Z,6.03
2023-07-10T13:03:26.341Z,3.57
2023-07-10T13:06:25.111Z,3.75
2023-07-10T13:09:30.119Z,8.70
2023-07-10T13:12:22.066Z,6.07
2023-07-10T13:15:15.082Z,4.75
2023-07-10T13:18:01.293Z,2.37
2023-07-10T13:20:53.103Z,4.43
2023-07-10T13:23:37.820Z,2.92
2023-07-10T13:26:31.098Z,4.53
2023-07-10T13:29:16.136Z,3.17
2023-07-10T13:32:08.152Z,6.27
2023-07-10T13:34:53.164Z,2.67
2023-07-10T13:37:45.102Z,3.63
2023-07-10T13:40:38.128Z,3.45
2023-07-10T13:43:30.118Z,4.75
2023-07-10T13:46:29.826Z,2.93
2023-07-10T13:49:21.119Z,3.93
2023-07-10T13:52:06.730Z,3.30
2023-07-10T13:55:00.166Z,2.72
2023-07-10T13:57:45.643Z,3.45
2023-07-10T14:00:37.149Z,4.22
2023-07-10T14:03:33.126Z,5.27
2023-07-10T14:06:45.112Z,3.63
2023-07-10T14:09:38.125Z,5.30
2023-07-10T14:12:33.163Z,8.07
2023-07-10T14:15:27.123Z,5.13
2023-07-10T14:18:24.099Z,3.50
2023-07-10T14:21:19.108Z,4.65
2023-07-10T14:24:04.495Z,3.88
2023-07-10T14:26:57.115Z,4.25
2023-07-10T14:29:42.471Z,5.70
2023-07-10T14:32:34.150Z,2.97
2023-07-10T14:35:20.987Z,6.05
2023-07-10T14:38:39.171Z,4.65
2023-07-10T14:41:25.470Z,3.53
2023-07-10T14:44:17.144Z,5.15
2023-07-10T14:47:07.684Z,2.93
2023-07-10T14:50:00.225Z,5.78
2023-07-10T14:52:52.212Z,4.35
2023-07-10T14:55:43.144Z,5.95
2023-07-10T14:58:38.309Z,6.65
2023-07-10T15:01:23.346Z,3.77
2023-07-10T15:04:15.302Z,5.13
2023-07-10T15:07:14.165Z,6.22
2023-07-10T15:10:00.430Z,5.72
2023-07-10T15:12:53.152Z,3.95
2023-07-10T15:15:38.469Z,4.47
2023-07-10T15:18:32.217Z,3.30
2023-07-10T15:21:20.447Z,6.03
2023-07-10T15:24:27.486Z,7.35
2023-07-10T15:27:19.160Z,2.78
2023-07-10T15:30:04.211Z,5.53
2023-07-10T15:32:57.217Z,2.58
2023-07-10T15:35:42.674Z,4.10
2023-07-10T15:38:34.157Z,4.35
2023-07-10T15:41:32.177Z,3.78
2023-07-10T15:44:17.044Z,2.83
2023-07-10T15:47:08.279Z,2.70
2023-07-10T15:49:53.586Z,4.88
2023-07-10T15:52:49.179Z,3.95
2023-07-10T15:55:35.912Z,7.05
2023-07-10T15:58:31.309Z,2.97
2023-07-10T16:01:19.835Z,4.50
2023-07-10T16:04:38.161Z,3.10
2023-07-10T16:07:23.081Z,3.70
2023-07-10T16:10:19.190Z,3.80
2023-07-10T16:13:16.166Z,2.83
2023-07-10T16:16:08.218Z,5.32
2023-07-10T16:18:53.362Z,3.67
2023-07-10T16:21:46.201Z,2.45
2023-07-10T16:24:38.192Z,2.85
2023-07-10T16:27:23.067Z,3.80
2023-07-10T16:30:20.191Z,3.28
2023-07-10T16:33:11.769Z,5.25
2023-07-10T16:36:03.178Z,2.53
2023-07-10T16:38:54.197Z,5.45
2023-07-10T16:41:39.374Z,3.80
2023-07-10T16:44:31.203Z,3.38
2023-07-10T16:47:18.602Z,4.07
2023-07-10T16:50:10.201Z,3.35
2023-07-10T16:53:01.212Z,3.58
2023-07-10T16:55:46.503Z,3.77
2023-07-10T16:58:40.194Z,3.35
2023-07-10T17:01:27.643Z,3.75
2023-07-10T17:04:19.271Z,3.67
2023-07-10T17:07:11.416Z,5.82
2023-07-10T17:10:03.199Z,2.87
2023-07-10T17:12:48.704Z,6.20
2023-07-10T17:15:40.197Z,5.57
2023-07-10T17:18:36.204Z,4.07
2023-07-10T17:21:21.583Z,6.47
2023-07-10T17:24:26.222Z,4.27
2023-07-10T17:27:11.421Z,3.22
2023-07-10T17:30:03.200Z,3.45
2023-07-10T17:32:48.659Z,4.15
2023-07-10T17:35:40.195Z,3.47
2023-07-10T17:38:25.309Z,7.73
2023-07-10T17:41:27.222Z,4.80
2023-07-10T17:44:34.046Z,2.60
2023-07-10T17:47:26.250Z,4.57
2023-07-10T17:50:16.666Z,7.10
2023-07-10T17:53:08.214Z,5.67
2023-07-10T17:56:05.209Z,3.33
2023-07-10T17:58:56.235Z,5.57
2023-07-10T18:01:42.392Z,5.35
2023-07-10T18:04:34.229Z,4.05
2023-07-10T18:07:32.250Z,4.30
2023-07-10T18:10:17.151Z,4.50
2023-07-10T18:13:08.237Z,3.47
2023-07-10T18:15:53.486Z,5.75
2023-07-10T18:18:46.268Z,5.25
2023-07-10T18:21:38.212Z,3.67
2023-07-10T18:24:25.181Z,4.78
2023-07-10T18:27:25.238Z,5.03
2023-07-10T18:30:20.381Z,5.38
2023-07-10T18:33:14.029Z,4.05
2023-07-10T18:36:05.253Z,4.67
2023-07-10T18:38:50.022Z,5.90
2023-07-10T18:41:42.268Z,3.78
2023-07-10T18:44:27.223Z,3.22
2023-07-10T18:47:20.266Z,4.95
2023-07-10T18:50:13.257Z,6.07
2023-07-10T18:52:58.401Z,3.78
2023-07-10T18:55:51.255Z,3.05
2023-07-10T18:58:36.303Z,2.22
2023-07-10T19:01:28.322Z,3.17
2023-07-10T19:04:19.277Z,3.47
2023-07-10T19:07:20.335Z,3.25
2023-07-10T19:10:05.841Z,5.75
2023-07-10T19:12:57.246Z,3.72
2023-07-10T19:15:43.676Z,3.42
2023-07-10T19:18:40.494Z,7.23
2023-07-10T19:21:26.422Z,5.10
2023-07-10T19:24:28.428Z,3.88
2023-07-10T19:27:13.365Z,3.75
2023-07-10T19:30:05.291Z,6.00
2023-07-10T19:32:57.265Z,7.37
2023-07-10T19:35:42.236Z,4.43
2023-07-10T19:38:36.339Z,2.88
2023-07-10T19:41:21.570Z,4.40
2023-07-10T19:44:13.260Z,6.47
2023-07-10T19:46:58.195Z,3.00
2023-07-10T19:49:50.274Z,4.45
2023-07-10T19:52:35.469Z,3.83
2023-07-10T19:55:28.277Z,8.05
2023-07-10T19:58:14.977Z,3.17
2023-07-10T20:01:06.336Z,4.80
2023-07-10T20:03:57.772Z,3.78
2023-07-10T20:06:56.311Z,3.33
2023-07-10T20:09:41.031Z,3.60
2023-07-10T20:12:32.300Z,5.78
2023-07-10T20:15:17.270Z,3.20
2023-07-10T20:18:08.321Z,3.85
2023-07-10T20:20:54.165Z,7.40
2023-07-10T20:23:46.342Z,6.38
2023-07-10T20:26:37.309Z,7.50
2023-07-10T20:29:29.291Z,4.60
2023-07-10T20:32:14.736Z,4.35
2023-07-10T20:35:06.345Z,4.70
2023-07-10T20:37:51.894Z,3.83
2023-07-10T20:40:43.290Z,3.90
2023-07-10T20:43:29.156Z,6.50
2023-07-10T20:46:26.346Z,3.38
2023-07-10T20:49:29.301Z,5.32
2023-07-10T20:52:16.498Z,4.80
2023-07-10T20:55:08.312Z,8.23
2023-07-10T20:57:53.459Z,3.73
2023-07-10T21:00:45.316Z,4.88
2023-07-10T21:03:37.417Z,4.07
2023-07-10T21:06:36.384Z,3.63
2023-07-10T21:09:34.320Z,6.43
2023-07-10T21:12:27.328Z,4.10
2023-07-10T21:15:14.569Z,6.10
2023-07-10T21:18:06.349Z,5.75
2023-07-10T21:20:52.182Z,6.18
2023-07-10T21:23:44.345Z,9.05
2023-07-10T21:26:32.337Z,7.03
2023-07-10T21:29:24.317Z,6.30
2023-07-10T21:32:19.414Z,6.43
2023-07-10T21:35:35.317Z,6.13
2023-07-10T21:38:23.010Z,4.47
2023-07-10T21:41:36.326Z,4.87
2023-07-10T21:44:23.725Z,3.58
2023-07-10T21:47:18.360Z,7.63
2023-07-10T21:50:22.351Z,6.32
2023-07-10T21:53:07.475Z,7.80
2023-07-10T21:56:04.551Z,6.53
2023-07-10T21:58:55.712Z,4.55
2023-07-10T22:01:47.333Z,7.68
2023-07-10T22:04:38.328Z,3.85
2023-07-10T22:07:36.346Z,4.50
2023-07-10T22:10:21.275Z,7.00
2023-07-10T22:13:21.356Z,5.18
2023-07-10T22:16:13.334Z,4.28
2023-07-10T22:19:00.733Z,8.77
2023-07-10T22:21:52.333Z,3.80
2023-07-10T22:24:37.628Z,4.03
2023-07-10T22:27:29.341Z,8.68
2023-07-10T22:30:14.444Z,4.05
2023-07-10T22:33:08.357Z,3.58
2023-07-10T22:35:53.341Z,5.97
2023-07-10T22:38:45.342Z,5.13
2023-07-10T22:41:35.758Z,3.47
2023-07-10T22:44:28.359Z,5.70
2023-07-10T22:47:13.514Z,4.32
2023-07-10T22:50:05.364Z,5.00
2023-07-10T22:52:50.670Z,6.03
2023-07-10T22:55:43.369Z,3.92
2023-07-10T22:58:28.500Z,3.47
2023-07-10T23:01:21.357Z,3.92
2023-07-10T23:04:12.412Z,5.47
2023-07-10T23:07:11.331Z,3.33
2023-07-10T23:10:05.394Z,2.63
2023-07-10T23:12:50.439Z,4.78
2023-07-10T23:15:41.381Z,2.97
2023-07-10T23:18:26.551Z,4.50
2023-07-10T23:21:18.348Z,4.67
2023-07-10T23:24:05.789Z,5.65
2023-07-10T23:26:57.345Z,5.55
2023-07-10T23:29:42.483Z,3.40
2023-07-10T23:32:38.374Z,6.45
2023-07-10T23:35:24.428Z,3.27
2023-07-10T23:38:16.344Z,3.13
2023-07-10T23:41:01.413Z,4.85
2023-07-10T23:43:53.347Z,4.60
2023-07-10T23:46:38.481Z,3.25
2023-07-10T23:49:29.368Z,3.43
2023-07-10T23:52:14.516Z,6.10
2023-07-10T23:55:05.371Z,6.03
2023-07-10T23:57:50.881Z,3.90
